sensor_id;sensor_type;location;lat;lon;timestamp;P1;durP1;ratioP1;P2;durP2;ratioP2
58972;SDS011;44750;52.040;7.472;2022-09-09T00:00:18;7.63;;;2.78;;
58972;SDS011;44750;52.040;7.472;2022-09-09T00:10:38;6.90;;;2.42;;
58972;SDS011;44750;52.040;7.472;2022-09-09T00:21:05;5.00;;;2.30;;
58972;SDS011;44750;52.040;7.472;2022-09-09T00:31:16;3.78;;;1.88;;
58972;SDS011;44750;52.040;7.472;2022-09-09T00:36:21;3.53;;;1.65;;
58972;SDS011;44750;52.040;7.472;2022-09-09T00:52:18;2.28;;;1.23;;
58972;SDS011;44750;52.040;7.472;2022-09-09T00:57:39;4.25;;;1.40;;
58972;SDS011;44750;52.040;7.472;2022-09-09T01:03:27;2.83;;;1.30;;
58972;SDS011;44750;52.040;7.472;2022-09-09T01:14:05;2.50;;;1.30;;
58972;SDS011;44750;52.040;7.472;2022-09-09T01:19:22;4.13;;;1.90;;
58972;SDS011;44750;52.040;7.472;2022-09-09T01:30:11;6.53;;;2.20;;
58972;SDS011;44750;52.040;7.472;2022-09-09T01:35:38;4.05;;;2.30;;
58972;SDS011;44750;52.040;7.472;2022-09-09T01:40:42;5.72;;;2.42;;
58972;SDS011;44750;52.040;7.472;2022-09-09T01:45:42;9.80;;;2.70;;
58972;SDS011;44750;52.040;7.472;2022-09-09T01:50:45;6.47;;;3.03;;
58972;SDS011;44750;52.040;7.472;2022-09-09T01:55:49;7.25;;;3.17;;
58972;SDS011;44750;52.040;7.472;2022-09-09T02:01:17;6.88;;;3.78;;
58972;SDS011;44750;52.040;7.472;2022-09-09T02:06:30;6.07;;;3.72;;
58972;SDS011;44750;52.040;7.472;2022-09-09T02:11:37;6.40;;;3.83;;
58972;SDS011;44750;52.040;7.472;2022-09-09T02:16:39;6.15;;;4.00;;
58972;SDS011;44750;52.040;7.472;2022-09-09T02:21:43;5.07;;;3.60;;
58972;SDS011;44750;52.040;7.472;2022-09-09T02:26:45;7.15;;;3.33;;
58972;SDS011;44750;52.040;7.472;2022-09-09T02:31:49;5.13;;;3.35;;
58972;SDS011;44750;52.040;7.472;2022-09-09T02:36:52;7.47;;;3.92;;
58972;SDS011;44750;52.040;7.472;2022-09-09T02:41:54;6.80;;;3.40;;
58972;SDS011;44750;52.040;7.472;2022-09-09T02:47:16;4.57;;;3.42;;
58972;SDS011;44750;52.040;7.472;2022-09-09T02:57:55;7.05;;;3.70;;
58972;SDS011;44750;52.040;7.472;2022-09-09T03:02:56;5.50;;;3.33;;
58972;SDS011;44750;52.040;7.472;2022-09-09T03:07:57;8.48;;;3.72;;
58972;SDS011;44750;52.040;7.472;2022-09-09T03:12:58;7.40;;;3.40;;
58972;SDS011;44750;52.040;7.472;2022-09-09T03:17:59;6.93;;;3.17;;
58972;SDS011;44750;52.040;7.472;2022-09-09T03:23:00;6.97;;;2.80;;
58972;SDS011;44750;52.040;7.472;2022-09-09T03:28:00;4.45;;;2.58;;
58972;SDS011;44750;52.040;7.472;2022-09-09T03:33:01;4.40;;;2.78;;
58972;SDS011;44750;52.040;7.472;2022-09-09T03:38:01;5.07;;;2.95;;
58972;SDS011;44750;52.040;7.472;2022-09-09T03:43:01;4.87;;;2.83;;
58972;SDS011;44750;52.040;7.472;2022-09-09T03:48:02;5.32;;;3.00;;
58972;SDS011;44750;52.040;7.472;2022-09-09T03:53:02;5.13;;;3.50;;
58972;SDS011;44750;52.040;7.472;2022-09-09T03:58:02;9.98;;;3.70;;
58972;SDS011;44750;52.040;7.472;2022-09-09T04:03:02;8.00;;;4.50;;
58972;SDS011;44750;52.040;7.472;2022-09-09T04:08:03;8.85;;;4.95;;
58972;SDS011;44750;52.040;7.472;2022-09-09T04:13:03;7.70;;;4.45;;
58972;SDS011;44750;52.040;7.472;2022-09-09T04:18:04;5.55;;;4.68;;
58972;SDS011;44750;52.040;7.472;2022-09-09T04:23:05;15.88;;;5.00;;
58972;SDS011;44750;52.040;7.472;2022-09-09T04:28:05;8.65;;;5.10;;
58972;SDS011;44750;52.040;7.472;2022-09-09T04:33:05;8.80;;;4.63;;
58972;SDS011;44750;52.040;7.472;2022-09-09T04:38:06;7.60;;;4.82;;
58972;SDS011;44750;52.040;7.472;2022-09-09T04:43:07;8.60;;;4.47;;
58972;SDS011;44750;52.040;7.472;2022-09-09T04:48:08;6.95;;;4.90;;
58972;SDS011;44750;52.040;7.472;2022-09-09T04:53:09;7.80;;;4.82;;
58972;SDS011;44750;52.040;7.472;2022-09-09T04:58:09;7.50;;;5.00;;
58972;SDS011;44750;52.040;7.472;2022-09-09T05:03:09;8.63;;;5.07;;
58972;SDS011;44750;52.040;7.472;2022-09-09T05:08:09;10.73;;;5.50;;
58972;SDS011;44750;52.040;7.472;2022-09-09T05:13:10;9.50;;;5.53;;
58972;SDS011;44750;52.040;7.472;2022-09-09T05:18:10;9.07;;;5.20;;
58972;SDS011;44750;52.040;7.472;2022-09-09T05:23:10;10.32;;;5.55;;
58972;SDS011;44750;52.040;7.472;2022-09-09T05:28:10;11.02;;;4.85;;
58972;SDS011;44750;52.040;7.472;2022-09-09T05:33:10;8.15;;;4.75;;
58972;SDS011;44750;52.040;7.472;2022-09-09T05:38:11;9.60;;;4.65;;
58972;SDS011;44750;52.040;7.472;2022-09-09T05:43:11;9.43;;;4.40;;
58972;SDS011;44750;52.040;7.472;2022-09-09T05:48:11;10.68;;;4.47;;
58972;SDS011;44750;52.040;7.472;2022-09-09T05:53:11;9.68;;;4.30;;
58972;SDS011;44750;52.040;7.472;2022-09-09T05:58:11;7.40;;;4.28;;
58972;SDS011;44750;52.040;7.472;2022-09-09T06:03:12;6.93;;;3.67;;
58972;SDS011;44750;52.040;7.472;2022-09-09T06:08:12;5.70;;;3.72;;
58972;SDS011;44750;52.040;7.472;2022-09-09T06:13:12;8.55;;;4.00;;
58972;SDS011;44750;52.040;7.472;2022-09-09T06:18:13;13.98;;;4.55;;
58972;SDS011;44750;52.040;7.472;2022-09-09T06:23:13;14.15;;;4.20;;
58972;SDS011;44750;52.040;7.472;2022-09-09T06:28:13;7.55;;;3.80;;
58972;SDS011;44750;52.040;7.472;2022-09-09T06:33:13;8.52;;;3.65;;
58972;SDS011;44750;52.040;7.472;2022-09-09T06:38:13;9.57;;;3.58;;
58972;SDS011;44750;52.040;7.472;2022-09-09T06:43:14;5.78;;;3.20;;
58972;SDS011;44750;52.040;7.472;2022-09-09T06:48:14;9.40;;;3.60;;
58972;SDS011;44750;52.040;7.472;2022-09-09T06:53:15;6.28;;;3.30;;
58972;SDS011;44750;52.040;7.472;2022-09-09T06:58:16;9.05;;;3.35;;
58972;SDS011;44750;52.040;7.472;2022-09-09T07:03:16;6.25;;;3.55;;
58972;SDS011;44750;52.040;7.472;2022-09-09T07:08:17;6.57;;;3.97;;
58972;SDS011;44750;52.040;7.472;2022-09-09T07:13:17;6.78;;;3.50;;
58972;SDS011;44750;52.040;7.472;2022-09-09T07:18:17;8.93;;;3.30;;
58972;SDS011;44750;52.040;7.472;2022-09-09T07:23:18;7.75;;;3.22;;
58972;SDS011;44750;52.040;7.472;2022-09-09T07:28:19;8.98;;;3.40;;
58972;SDS011;44750;52.040;7.472;2022-09-09T07:33:20;9.77;;;3.40;;
58972;SDS011;44750;52.040;7.472;2022-09-09T07:38:20;7.65;;;3.20;;
58972;SDS011;44750;52.040;7.472;2022-09-09T07:43:25;6.90;;;2.88;;
58972;SDS011;44750;52.040;7.472;2022-09-09T07:48:26;8.63;;;2.92;;
58972;SDS011;44750;52.040;7.472;2022-09-09T07:53:27;10.00;;;3.03;;
58972;SDS011;44750;52.040;7.472;2022-09-09T07:58:27;5.78;;;2.53;;
58972;SDS011;44750;52.040;7.472;2022-09-09T08:03:29;9.18;;;2.38;;
58972;SDS011;44750;52.040;7.472;2022-09-09T08:08:29;9.18;;;2.40;;
58972;SDS011;44750;52.040;7.472;2022-09-09T08:13:29;8.27;;;2.03;;
58972;SDS011;44750;52.040;7.472;2022-09-09T08:18:29;7.50;;;1.87;;
58972;SDS011;44750;52.040;7.472;2022-09-09T08:23:30;5.70;;;2.15;;
58972;SDS011;44750;52.040;7.472;2022-09-09T08:28:30;7.35;;;2.05;;
58972;SDS011;44750;52.040;7.472;2022-09-09T08:33:30;8.27;;;1.87;;
58972;SDS011;44750;52.040;7.472;2022-09-09T08:38:30;9.48;;;2.15;;
58972;SDS011;44750;52.040;7.472;2022-09-09T08:43:31;6.07;;;1.80;;
58972;SDS011;44750;52.040;7.472;2022-09-09T08:48:56;6.78;;;2.90;;
58972;SDS011;44750;52.040;7.472;2022-09-09T08:54:23;7.28;;;2.70;;
58972;SDS011;44750;52.040;7.472;2022-09-09T08:59:27;8.98;;;2.60;;
58972;SDS011;44750;52.040;7.472;2022-09-09T09:15:14;6.43;;;3.00;;
58972;SDS011;44750;52.040;7.472;2022-09-09T09:20:21;6.55;;;2.63;;
58972;SDS011;44750;52.040;7.472;2022-09-09T09:25:34;11.07;;;2.50;;
58972;SDS011;44750;52.040;7.472;2022-09-09T09:30:39;10.07;;;2.45;;
58972;SDS011;44750;52.040;7.472;2022-09-09T09:35:50;9.35;;;3.33;;
58972;SDS011;44750;52.040;7.472;2022-09-09T09:40:54;7.97;;;2.40;;
58972;SDS011;44750;52.040;7.472;2022-09-09T09:45:56;9.85;;;2.45;;
58972;SDS011;44750;52.040;7.472;2022-09-09T09:51:09;6.45;;;2.33;;
58972;SDS011;44750;52.040;7.472;2022-09-09T09:56:13;8.30;;;2.33;;
58972;SDS011;44750;52.040;7.472;2022-09-09T10:01:21;9.82;;;2.05;;
58972;SDS011;44750;52.040;7.472;2022-09-09T10:06:30;5.78;;;1.92;;
58972;SDS011;44750;52.040;7.472;2022-09-09T10:27:50;6.80;;;1.63;;
58972;SDS011;44750;52.040;7.472;2022-09-09T10:38:48;9.37;;;1.77;;
58972;SDS011;44750;52.040;7.472;2022-09-09T10:44:11;8.68;;;2.53;;
58972;SDS011;44750;52.040;7.472;2022-09-09T10:55:18;12.15;;;4.85;;
58972;SDS011;44750;52.040;7.472;2022-09-09T11:00:21;6.75;;;1.70;;
58972;SDS011;44750;52.040;7.472;2022-09-09T11:15:35;4.22;;;0.98;;
58972;SDS011;44750;52.040;7.472;2022-09-09T11:20:41;9.02;;;1.33;;
58972;SDS011;44750;52.040;7.472;2022-09-09T11:25:44;5.25;;;1.50;;
58972;SDS011;44750;52.040;7.472;2022-09-09T11:41:23;5.28;;;1.60;;
58972;SDS011;44750;52.040;7.472;2022-09-09T11:46:35;7.97;;;2.28;;
58972;SDS011;44750;52.040;7.472;2022-09-09T11:51:37;6.65;;;1.90;;
58972;SDS011;44750;52.040;7.472;2022-09-09T12:01:42;3.87;;;1.57;;
58972;SDS011;44750;52.040;7.472;2022-09-09T12:07:31;5.68;;;1.65;;
58972;SDS011;44750;52.040;7.472;2022-09-09T12:12:26;4.50;;;1.58;;
58972;SDS011;44750;52.040;7.472;2022-09-09T12:17:29;7.33;;;1.57;;
58972;SDS011;44750;52.040;7.472;2022-09-09T12:27:43;2.28;;;0.70;;
58972;SDS011;44750;52.040;7.472;2022-09-09T12:33:01;9.18;;;1.92;;
58972;SDS011;44750;52.040;7.472;2022-09-09T12:38:14;3.70;;;1.00;;
58972;SDS011;44750;52.040;7.472;2022-09-09T12:54:05;3.47;;;1.23;;
58972;SDS011;44750;52.040;7.472;2022-09-09T12:59:17;4.70;;;1.88;;
58972;SDS011;44750;52.040;7.472;2022-09-09T13:04:22;4.18;;;1.33;;
58972;SDS011;44750;52.040;7.472;2022-09-09T13:09:22;3.43;;;1.00;;
58972;SDS011;44750;52.040;7.472;2022-09-09T13:14:32;5.28;;;1.05;;
58972;SDS011;44750;52.040;7.472;2022-09-09T13:19:36;12.77;;;1.30;;
58972;SDS011;44750;52.040;7.472;2022-09-09T13:24:38;3.35;;;0.95;;
58972;SDS011;44750;52.040;7.472;2022-09-09T13:29:39;4.57;;;0.90;;
58972;SDS011;44750;52.040;7.472;2022-09-09T13:34:39;6.18;;;1.30;;
58972;SDS011;44750;52.040;7.472;2022-09-09T13:39:39;20.98;;;3.15;;
58972;SDS011;44750;52.040;7.472;2022-09-09T13:44:39;4.97;;;1.30;;
58972;SDS011;44750;52.040;7.472;2022-09-09T13:49:41;3.53;;;1.15;;
58972;SDS011;44750;52.040;7.472;2022-09-09T13:54:41;2.08;;;0.95;;
58972;SDS011;44750;52.040;7.472;2022-09-09T13:59:41;4.25;;;1.08;;
58972;SDS011;44750;52.040;7.472;2022-09-09T14:04:42;2.75;;;1.08;;
58972;SDS011;44750;52.040;7.472;2022-09-09T14:09:43;4.43;;;1.08;;
58972;SDS011;44750;52.040;7.472;2022-09-09T14:14:43;6.38;;;1.65;;
58972;SDS011;44750;52.040;7.472;2022-09-09T14:19:43;2.95;;;1.52;;
58972;SDS011;44750;52.040;7.472;2022-09-09T14:24:44;8.23;;;1.60;;
58972;SDS011;44750;52.040;7.472;2022-09-09T14:29:44;2.88;;;1.33;;
58972;SDS011;44750;52.040;7.472;2022-09-09T14:34:44;2.97;;;1.17;;
58972;SDS011;44750;52.040;7.472;2022-09-09T14:39:45;4.50;;;1.20;;
58972;SDS011;44750;52.040;7.472;2022-09-09T14:44:45;5.03;;;1.23;;
58972;SDS011;44750;52.040;7.472;2022-09-09T14:49:45;2.97;;;0.90;;
58972;SDS011;44750;52.040;7.472;2022-09-09T14:54:46;4.20;;;1.23;;
58972;SDS011;44750;52.040;7.472;2022-09-09T14:59:46;3.10;;;1.23;;
58972;SDS011;44750;52.040;7.472;2022-09-09T15:04:46;4.10;;;1.10;;
58972;SDS011;44750;52.040;7.472;2022-09-09T15:09:46;2.40;;;1.08;;
58972;SDS011;44750;52.040;7.472;2022-09-09T15:14:46;4.63;;;0.70;;
58972;SDS011;44750;52.040;7.472;2022-09-09T15:19:47;1.83;;;0.70;;
58972;SDS011;44750;52.040;7.472;2022-09-09T15:24:47;3.20;;;0.70;;
58972;SDS011;44750;52.040;7.472;2022-09-09T15:29:47;2.33;;;0.70;;
58972;SDS011;44750;52.040;7.472;2022-09-09T15:34:48;2.97;;;0.63;;
58972;SDS011;44750;52.040;7.472;2022-09-09T15:39:48;2.80;;;0.80;;
58972;SDS011;44750;52.040;7.472;2022-09-09T15:44:48;3.50;;;0.80;;
58972;SDS011;44750;52.040;7.472;2022-09-09T15:49:48;4.90;;;0.80;;
58972;SDS011;44750;52.040;7.472;2022-09-09T15:54:48;3.15;;;0.85;;
58972;SDS011;44750;52.040;7.472;2022-09-09T15:59:49;4.57;;;0.90;;
58972;SDS011;44750;52.040;7.472;2022-09-09T16:04:49;3.67;;;0.95;;
58972;SDS011;44750;52.040;7.472;2022-09-09T16:09:49;3.15;;;1.05;;
58972;SDS011;44750;52.040;7.472;2022-09-09T16:14:49;5.13;;;2.22;;
58972;SDS011;44750;52.040;7.472;2022-09-09T16:19:49;6.55;;;2.53;;
58972;SDS011;44750;52.040;7.472;2022-09-09T16:24:50;4.03;;;1.48;;
58972;SDS011;44750;52.040;7.472;2022-09-09T16:29:50;5.37;;;1.43;;
58972;SDS011;44750;52.040;7.472;2022-09-09T16:34:50;5.05;;;1.88;;
58972;SDS011;44750;52.040;7.472;2022-09-09T16:39:50;6.45;;;2.78;;
58972;SDS011;44750;52.040;7.472;2022-09-09T16:44:51;5.55;;;1.50;;
58972;SDS011;44750;52.040;7.472;2022-09-09T16:49:51;4.50;;;1.75;;
58972;SDS011;44750;52.040;7.472;2022-09-09T16:54:51;6.90;;;3.10;;
58972;SDS011;44750;52.040;7.472;2022-09-09T16:59:51;20.27;;;8.50;;
58972;SDS011;44750;52.040;7.472;2022-09-09T17:04:51;2.92;;;1.50;;
58972;SDS011;44750;52.040;7.472;2022-09-09T17:09:52;2.05;;;1.30;;
58972;SDS011;44750;52.040;7.472;2022-09-09T17:14:53;2.58;;;1.10;;
58972;SDS011;44750;52.040;7.472;2022-09-09T17:19:54;3.38;;;1.20;;
58972;SDS011;44750;52.040;7.472;2022-09-09T17:24:54;9.93;;;5.28;;
58972;SDS011;44750;52.040;7.472;2022-09-09T17:29:54;4.65;;;1.20;;
58972;SDS011;44750;52.040;7.472;2022-09-09T17:34:54;2.33;;;1.40;;
58972;SDS011;44750;52.040;7.472;2022-09-09T17:39:55;4.47;;;1.98;;
58972;SDS011;44750;52.040;7.472;2022-09-09T17:44:55;3.67;;;1.65;;
58972;SDS011;44750;52.040;7.472;2022-09-09T17:49:55;3.67;;;1.80;;
58972;SDS011;44750;52.040;7.472;2022-09-09T17:54:55;4.03;;;1.70;;
58972;SDS011;44750;52.040;7.472;2022-09-09T17:59:56;4.35;;;2.00;;
58972;SDS011;44750;52.040;7.472;2022-09-09T18:04:56;9.10;;;4.35;;
58972;SDS011;44750;52.040;7.472;2022-09-09T18:09:56;4.28;;;2.20;;
58972;SDS011;44750;52.040;7.472;2022-09-09T18:14:56;4.28;;;1.77;;
58972;SDS011;44750;52.040;7.472;2022-09-09T18:19:56;3.03;;;2.22;;
58972;SDS011;44750;52.040;7.472;2022-09-09T18:24:57;2.90;;;1.27;;
58972;SDS011;44750;52.040;7.472;2022-09-09T18:29:57;4.80;;;2.30;;
58972;SDS011;44750;52.040;7.472;2022-09-09T18:34:57;8.90;;;2.70;;
58972;SDS011;44750;52.040;7.472;2022-09-09T18:39:57;4.00;;;1.48;;
58972;SDS011;44750;52.040;7.472;2022-09-09T18:44:57;4.47;;;2.65;;
58972;SDS011;44750;52.040;7.472;2022-09-09T18:49:58;4.55;;;1.73;;
58972;SDS011;44750;52.040;7.472;2022-09-09T18:54:58;5.63;;;1.85;;
58972;SDS011;44750;52.040;7.472;2022-09-09T18:59:59;2.78;;;1.70;;
58972;SDS011;44750;52.040;7.472;2022-09-09T19:04:59;5.10;;;1.70;;
58972;SDS011;44750;52.040;7.472;2022-09-09T19:09:59;3.13;;;2.00;;
58972;SDS011;44750;52.040;7.472;2022-09-09T19:14:59;3.85;;;1.98;;
58972;SDS011;44750;52.040;7.472;2022-09-09T19:20:00;4.72;;;2.55;;
58972;SDS011;44750;52.040;7.472;2022-09-09T19:25:00;5.60;;;2.88;;
58972;SDS011;44750;52.040;7.472;2022-09-09T19:30:01;4.50;;;2.80;;
58972;SDS011;44750;52.040;7.472;2022-09-09T19:35:01;7.50;;;4.20;;
58972;SDS011;44750;52.040;7.472;2022-09-09T19:40:02;5.57;;;3.55;;
58972;SDS011;44750;52.040;7.472;2022-09-09T19:45:02;12.32;;;6.90;;
58972;SDS011;44750;52.040;7.472;2022-09-09T19:50:03;12.93;;;7.57;;
58972;SDS011;44750;52.040;7.472;2022-09-09T19:55:03;6.75;;;4.07;;
58972;SDS011;44750;52.040;7.472;2022-09-09T20:00:04;7.78;;;3.70;;
58972;SDS011;44750;52.040;7.472;2022-09-09T20:05:05;4.20;;;2.53;;
58972;SDS011;44750;52.040;7.472;2022-09-09T20:10:06;2.75;;;2.17;;
58972;SDS011;44750;52.040;7.472;2022-09-09T20:15:07;4.25;;;2.00;;
58972;SDS011;44750;52.040;7.472;2022-09-09T20:20:07;3.85;;;1.63;;
58972;SDS011;44750;52.040;7.472;2022-09-09T20:25:08;2.00;;;1.60;;
58972;SDS011;44750;52.040;7.472;2022-09-09T20:30:08;3.22;;;2.20;;
58972;SDS011;44750;52.040;7.472;2022-09-09T20:35:08;4.80;;;2.80;;
58972;SDS011;44750;52.040;7.472;2022-09-09T20:40:09;5.30;;;3.30;;
58972;SDS011;44750;52.040;7.472;2022-09-09T20:45:09;8.17;;;4.27;;
58972;SDS011;44750;52.040;7.472;2022-09-09T20:50:09;5.30;;;4.73;;
58972;SDS011;44750;52.040;7.472;2022-09-09T20:55:10;6.15;;;5.15;;
58972;SDS011;44750;52.040;7.472;2022-09-09T21:00:10;6.82;;;4.85;;
58972;SDS011;44750;52.040;7.472;2022-09-09T21:05:10;7.75;;;4.90;;
58972;SDS011;44750;52.040;7.472;2022-09-09T21:10:11;6.57;;;5.40;;
58972;SDS011;44750;52.040;7.472;2022-09-09T21:15:11;8.98;;;5.57;;
58972;SDS011;44750;52.040;7.472;2022-09-09T21:20:11;7.60;;;4.78;;
58972;SDS011;44750;52.040;7.472;2022-09-09T21:25:11;5.95;;;4.70;;
58972;SDS011;44750;52.040;7.472;2022-09-09T21:30:12;8.32;;;6.10;;
58972;SDS011;44750;52.040;7.472;2022-09-09T21:35:12;12.68;;;9.00;;
58972;SDS011;44750;52.040;7.472;2022-09-09T21:40:13;10.73;;;9.45;;
58972;SDS011;44750;52.040;7.472;2022-09-09T21:45:14;11.07;;;8.43;;
58972;SDS011;44750;52.040;7.472;2022-09-09T21:50:14;11.80;;;8.88;;
58972;SDS011;44750;52.040;7.472;2022-09-09T21:55:15;11.30;;;8.47;;
58972;SDS011;44750;52.040;7.472;2022-09-09T22:00:15;12.03;;;8.63;;
58972;SDS011;44750;52.040;7.472;2022-09-09T22:05:15;12.35;;;9.10;;
58972;SDS011;44750;52.040;7.472;2022-09-09T22:10:15;16.05;;;9.90;;
58972;SDS011;44750;52.040;7.472;2022-09-09T22:15:16;11.47;;;9.93;;
58972;SDS011;44750;52.040;7.472;2022-09-09T22:20:16;14.52;;;10.85;;
58972;SDS011;44750;52.040;7.472;2022-09-09T22:25:16;18.65;;;11.60;;
58972;SDS011;44750;52.040;7.472;2022-09-09T22:30:17;18.15;;;13.00;;
58972;SDS011;44750;52.040;7.472;2022-09-09T22:35:17;21.65;;;13.32;;
58972;SDS011;44750;52.040;7.472;2022-09-09T22:40:17;21.88;;;14.07;;
58972;SDS011;44750;52.040;7.472;2022-09-09T22:45:17;21.52;;;13.48;;
58972;SDS011;44750;52.040;7.472;2022-09-09T22:50:18;19.30;;;12.77;;
58972;SDS011;44750;52.040;7.472;2022-09-09T22:55:18;20.05;;;12.73;;
58972;SDS011;44750;52.040;7.472;2022-09-09T23:00:18;19.30;;;12.95;;
58972;SDS011;44750;52.040;7.472;2022-09-09T23:05:19;20.07;;;13.20;;
58972;SDS011;44750;52.040;7.472;2022-09-09T23:10:19;21.17;;;12.68;;
58972;SDS011;44750;52.040;7.472;2022-09-09T23:15:19;18.73;;;12.38;;
58972;SDS011;44750;52.040;7.472;2022-09-09T23:20:19;21.25;;;12.95;;
58972;SDS011;44750;52.040;7.472;2022-09-09T23:25:20;21.00;;;12.38;;
58972;SDS011;44750;52.040;7.472;2022-09-09T23:30:20;18.73;;;12.15;;
58972;SDS011;44750;52.040;7.472;2022-09-09T23:35:21;20.02;;;11.98;;
58972;SDS011;44750;52.040;7.472;2022-09-09T23:40:21;22.23;;;11.55;;
58972;SDS011;44750;52.040;7.472;2022-09-09T23:45:21;20.85;;;10.95;;
58972;SDS011;44750;52.040;7.472;2022-09-09T23:50:21;21.38;;;10.57;;
58972;SDS011;44750;52.040;7.472;2022-09-09T23:55:22;15.63;;;9.77;;
